Terminal Aerodrome Forecast
Issued by NWS Wilmington, NC

Home | Current Version | Previous Version | Text Only | Print | Product List | Glossary On
Versions: 1 2 3 4 5 6 7 8 9 10 11 12
841
FTUS42 KILM 281132
TAFILM
TAF
KILM 281132Z 2812/2912 25008KT P6SM SCT060
     FM281900 22012KT P6SM SCT060
     FM290100 22007KT P6SM SKC=

USA.gov is the U.S. government's official web portal to all federal, state and local government web resources and services.